Logo AVAMET
Benvolgut visitant, si us plau, ingressa Recuperar contrasenya
AVAMET paisatges

Miramar AEMET

Dades diàries. Acumulats / Últims 30 dies disponibles

Data Temperatura (°C) Humitat rel. (%) Pressió rel. (hPa) Vent (km/h) Precipitació
Mínima Mitjana Màxima Amplitud
tèrmica
Mínima Mitjana Màxima Mínima Mitjana Màxima Predom. Mitjana Ràfega
màxima
Total
(mm)
Índex-n
Mínima Mitjana Màxima Mínima Mitjana Màxima n
0 a 1
P0 max
mm 5'
Dades mensuals acumulades fins l'últim dia disponible
02/2020 7,4 10,7 15,4 15,6 14,2 20,5 27,4 20,0   44,0
Dades anuals acumulades fins l'últim dia disponible
2020 5,1 9,7 15,4 14,0 12,2 18,3 27,4 22,3   100,0 0,4
Últims 30 dies disponibles
28-02-2020 12,0     17,5     23,0 11,0 31,0
27-02-2020 11,1     17,8     24,4 13,3 32,0
26-02-2020 12,9     17,9     23,0 10,1 35,0
25-02-2020 10,4     18,6     26,8 16,4 44,0
24-02-2020 9,6     15,3     21,0 11,4 20,0
23-02-2020 7,4     13,0     18,6 11,2 19,0
22-02-2020 8,3     13,2     18,1 9,8 17,0
21-02-2020 8,1     12,8     17,5 9,4 19,0
20-02-2020 8,1     12,8     17,5 9,4 19,0
19-02-2020 10,3     13,3     16,2 5,9 19,0
18-02-2020 13,0     13,8     14,6 1,6 23,0
17-02-2020 8,0     16,6     25,2 17,2 26,0
16-02-2020 9,9     15,1     20,3 10,4 15,0
15-02-2020 9,3     13,7     18,0 8,7 19,0
14-02-2020 11,9     15,8     19,8 7,9 23,0
13-02-2020 10,7     17,0     23,2 12,5 27,0
12-02-2020 11,9     15,6     19,3 7,4 19,0
11-02-2020 13,0     18,6     24,2 11,2 36,0
10-02-2020 12,8     19,0     25,1 12,3 42,0
09-02-2020 8,8     12,5     16,2 7,4 16,0
08-02-2020 7,7     11,8     15,8 8,1 19,0
07-02-2020 8,9     12,1     15,4 6,5 16,0
06-02-2020 8,1     11,2     14,2 6,1 24,0
05-02-2020 9,6     12,1     14,5 4,9 24,0
04-02-2020 13,0     20,2     27,4 14,4 39,0
03-02-2020 14,6     19,9     25,1 10,5 22,0
02-02-2020 15,4     20,1     24,9 9,5 37,0
01-02-2020 15,2     19,5     23,9 8,7 44,0
31-01-2020 15,3     18,4     21,5 6,2 40,0
30-01-2020 14,5     18,7     22,9 8,4 41,0
Últims 13 mesos disponibles
01/2020 5,1 8,7 15,3 12,5 12,2 16,3 22,9 17,8 100,0
12/2019 7,1 11,1 18,8 14,8 13,6 18,5 26,7 19,6 79,0 129,0
11/2019 6,5 12,6 21,7 16,5 16,2 20,4 28,1 21,6 67,0
10/2019 12,8 17,0 21,0 20,9 16,1 24,8 31,6 18,8 48,0
09/2019 15,0 20,5 23,5 24,3 23,7 28,0 35,2 20,2 76,0
08/2019 18,8 23,0 27,2 27,3 27,0 31,6 38,7 19,9 52,0 9,6
07/2019 21,8 23,4 25,9 27,4 28,2 31,4 36,6 14,8 62,0 0,4
06/2019 14,0 18,4 22,6 23,0 21,9 27,5 33,7 19,7 48,0 0,0
05/2019 10,6 15,2 22,4 19,8 18,6 24,3 32,3 21,7 51,0 4,8
04/2019 8,3 12,1 14,8 16,1 14,7 20,2 29,1 20,8 60,0 150,0
03/2019 7,5 9,8 15,1 14,7 14,2 19,7 29,4 21,9 43,0 43,0
02/2019 5,2 8,2 11,9 12,7 13,1 17,2 22,4 17,2 0,0
12/2018
Tots els anys disponibles
2017 1,2 14,9 26,3 19,0 9,4 23,1 38,6 37,4 34,0 474,8
2016 4,7 15,4 25,5 19,4 12,3 23,3 40,4 35,7 418,8
2015 2,5 15,0 26,9 19,0 8,9 23,0 38,9 36,4 565,8
Temperatura (°C)
Humitat relativa (%)
Velocitat del vent i ràfega màxima (km/h)
Direcció del vent (°)
Pressió (hPa)
Precipitació (mm)
Nota sobre les dades: s'avisa a l'usuari de la provisionalitat i no oficialitat d'aquestes dades
Logo AVAMET blanc
Web allotjada a Sollutia
Llicència de Creative CommonsLa web d'AVAMET i els seus continguts estan subjectes a una llicència de
Reconeixement - No Comercial - Compartir igual
Últimes estacions:  Forcall (Ajuntament Soci), Sant Joanet (Soci), Marines (Soci), Vilallonga - Serpis (Soci), Sorita (AVAMET), Gorga (Soci) - - -